Hinton St George, United Kingdom
Current Conditions -  °F | °C
As of 9:50 PM on Thursday 23 Oct 2014 (Local Time) from EGDY Reporting Station
Broken Clouds Broken Clouds  
Wind Chill: 57°   Ceiling: 10000
Heat Index: 57°   Visibility: 6mi
Dew Point: 55°   Wind: 3mph
Humidity: 94%   Direction: 230°SW
Pressure: 30.03"   Gusts: NA
Location:  50.91°N, 2.82°W
Report Text: EGDY 232050Z AUTO 23003KT 9999 FEW025/// BKN100/// 14/13 Q1017
Loading
Personal Weather Stations






























Interactive Weather Map
Tropical Storm Tracking
New forecast layout! Learn more

10-Day Weather Forecast

Advertisements
Track Severe Weather on mobile